Time;durP1;ratioP1;P1;durP2;ratioP2;P2;SDS_P1;SDS_P2;PMS_P1;PMS_P2;Temp;Humidity;BMP_temperature;BMP_pressure;BME280_temperature;BME280_humidity;BME280_pressure;Samples;Min_cycle;Max_cycle;Signal;HPM_P1;HPM_P2
2023/08/16 00:02:04;;;;;;;;;;;;;;;26.69;48.78;99423.44;5073659;28;19920;-77
2023/08/16 00:04:29;;;;;;;;;;;;;;;26.69;49.07;99424.22;5073785;28;19917;-77
2023/08/16 00:06:55;;;;;;;;;;;;;;;26.70;48.64;99417.72;5073634;28;20046;-77
2023/08/16 00:09:21;;;;;;;;;;;;;;;26.72;48.75;99409.31;5073437;28;20411;-77
2023/08/16 00:11:46;;;;;;;;;;;;;;;26.72;48.43;99420.16;5073614;28;19920;-77
2023/08/16 00:14:11;;;;;;;;;;;;;;;26.72;48.53;99418.25;5073359;28;19920;-77
2023/08/16 00:16:37;;;;;;;;;;;;;;;26.72;48.61;99412.81;5082596;28;19913;-78
2023/08/16 00:19:02;;;;;;;;;;;;;;;26.70;48.53;99409.59;5068930;28;19916;-78
2023/08/16 00:21:27;;;;;;;;;;;;;;;26.65;48.80;99412.34;5072653;28;20409;-77
2023/08/16 00:23:53;;;;;;;;;;;;;;;26.63;48.35;99408.31;5072618;28;19913;-77
2023/08/16 00:26:18;;;;;;;;;;;;;;;26.61;48.73;99414.03;5054695;28;19909;-77
2023/08/16 00:28:45;;;;;;;;;;;;;;;26.62;49.01;99417.53;5072701;28;20471;-77
2023/08/16 00:31:10;;;;;;;;;;;;;;;26.62;48.85;99412.13;5072853;28;20340;-77
2023/08/16 00:33:36;;;;;;;;;;;;;;;26.59;48.85;99408.09;5073019;28;19919;-77
2023/08/16 00:36:01;;;;;;;;;;;;;;;26.56;48.99;99403.25;5072869;28;19913;-78
2023/08/16 00:38:26;;;;;;;;;;;;;;;26.53;48.67;99407.34;5072804;28;20410;-77
2023/08/16 00:40:51;;;;;;;;;;;;;;;26.53;49.11;99412.75;5072739;28;19951;-77
2023/08/16 00:43:17;;;;;;;;;;;;;;;26.50;49.30;99407.91;5072784;28;19920;-77
2023/08/16 00:45:43;;;;;;;;;;;;;;;26.47;49.24;99410.38;5054202;28;20015;-78
2023/08/16 00:48:09;;;;;;;;;;;;;;;26.47;49.27;99407.66;5072161;28;20007;-78
2023/08/16 00:50:34;;;;;;;;;;;;;;;26.45;49.48;99417.97;5072235;28;20005;-77
2023/08/16 00:53:00;;;;;;;;;;;;;;;26.42;49.12;99416.66;5054218;28;19948;-77
2023/08/16 00:55:25;;;;;;;;;;;;;;;26.37;49.57;99422.13;5071919;28;19912;-77
2023/08/16 00:57:51;;;;;;;;;;;;;;;26.34;49.98;99430.81;5072091;28;20435;-77
2023/08/16 01:00:16;;;;;;;;;;;;;;;26.35;49.49;99428.91;5071858;28;20363;-77
2023/08/16 01:02:41;;;;;;;;;;;;;;;26.35;49.67;99434.31;5071977;28;19912;-78
2023/08/16 01:05:07;;;;;;;;;;;;;;;26.33;49.68;99429.19;5072223;28;19999;-79
2023/08/16 01:07:32;;;;;;;;;;;;;;;26.30;50.22;99427.03;5071923;28;19924;-77
2023/08/16 01:09:57;;;;;;;;;;;;;;;26.28;49.84;99426.50;5053909;28;19942;-77
2023/08/16 01:12:31;;;;;;;;;;;;;;;26.26;49.57;99424.06;5071082;28;19912;-77
2023/08/16 01:15:09;;;;;;;;;;;;;;;26.25;49.52;99421.66;5071853;28;19909;-77
2023/08/16 01:17:35;;;;;;;;;;;;;;;26.26;49.91;99426.78;5053817;28;20373;-76
2023/08/16 01:20:00;;;;;;;;;;;;;;;26.23;49.89;99429.25;5071846;28;19948;-77
2023/08/16 01:22:32;;;;;;;;;;;;;;;26.18;49.94;99424.69;5071684;28;20054;-77
2023/08/16 01:25:07;;;;;;;;;;;;;;;26.14;49.99;99429.03;5071821;28;19909;-78
2023/08/16 01:27:33;;;;;;;;;;;;;;;26.12;49.86;99425.00;5071779;28;19969;-76
2023/08/16 01:29:58;;;;;;;;;;;;;;;26.06;49.92;99428.84;5071677;28;19912;-78
2023/08/16 01:32:24;;;;;;;;;;;;;;;26.03;49.76;99422.09;5053684;28;20286;-78
2023/08/16 01:34:49;;;;;;;;;;;;;;;26.00;49.83;99428.03;5053668;28;20359;-78
2023/08/16 01:37:14;;;;;;;;;;;;;;;25.97;49.94;99429.41;5071531;28;19917;-77
2023/08/16 01:39:40;;;;;;;;;;;;;;;25.95;50.15;99434.31;5071686;28;19913;-77
2023/08/16 01:42:06;;;;;;;;;;;;;;;25.91;50.09;99421.63;5053956;28;19919;-76
2023/08/16 01:44:32;;;;;;;;;;;;;;;25.88;50.41;99427.59;5053579;28;19912;-77
2023/08/16 01:46:58;;;;;;;;;;;;;;;25.83;50.52;99441.16;5071458;28;20389;-78
2023/08/16 01:49:24;;;;;;;;;;;;;;;25.76;50.68;99436.06;5071569;28;19923;-78
2023/08/16 01:51:49;;;;;;;;;;;;;;;25.69;50.58;99435.56;5053577;28;19913;-77
2023/08/16 01:54:15;;;;;;;;;;;;;;;25.59;51.96;99425.59;5071388;28;19952;-78
2023/08/16 01:56:40;;;;;;;;;;;;;;;25.55;51.68;99429.13;5071518;28;19909;-78
2023/08/16 01:59:05;;;;;;;;;;;;;;;25.45;52.62;99426.47;5071466;28;20413;-77
2023/08/16 02:01:30;;;;;;;;;;;;;;;25.37;52.06;99418.94;5071316;28;19920;-78
2023/08/16 02:03:56;;;;;;;;;;;;;;;25.36;52.76;99428.16;5071631;28;19919;-76
2023/08/16 02:06:21;;;;;;;;;;;;;;;25.32;52.64;99420.59;5071454;28;19913;-77
2023/08/16 02:08:47;;;;;;;;;;;;;;;25.27;52.55;99415.22;5071349;28;20415;-77
2023/08/16 02:11:12;;;;;;;;;;;;;;;25.27;52.22;99415.22;5071321;28;19912;-78
2023/08/16 02:13:37;;;;;;;;;;;;;;;25.25;52.64;99405.72;5071340;28;20312;-77
2023/08/16 02:16:03;;;;;;;;;;;;;;;25.22;53.83;99412.50;5071894;28;19916;-76
2023/08/16 02:18:29;;;;;;;;;;;;;;;25.19;52.98;99412.25;5071778;28;19966;-76
2023/08/16 02:20:55;;;;;;;;;;;;;;;25.19;53.43;99420.34;5072138;28;20363;-76
2023/08/16 02:23:20;;;;;;;;;;;;;;;25.19;52.90;99417.66;5054705;28;19913;-76
2023/08/16 02:25:45;;;;;;;;;;;;;;;25.19;53.11;99413.06;5057780;28;19913;-78
2023/08/16 02:28:11;;;;;;;;;;;;;;;25.22;53.91;99407.09;5075113;28;19916;-77
2023/08/16 02:30:36;;;;;;;;;;;;;;;25.20;53.22;99397.66;5074810;28;20381;-77
2023/08/16 02:33:01;;;;;;;;;;;;;;;25.24;51.91;99404.13;5056785;28;19913;-77
2023/08/16 02:35:26;;;;;;;;;;;;;;;25.22;52.76;99396.28;5056848;28;19961;-78
2023/08/16 02:37:52;;;;;;;;;;;;;;;25.21;52.88;99404.69;5074662;28;19913;-78
2023/08/16 02:40:17;;;;;;;;;;;;;;;25.22;52.74;99406.28;5074643;28;19912;-77
2023/08/16 02:42:42;;;;;;;;;;;;;;;25.25;52.40;99403.03;5056648;28;19912;-78
2023/08/16 02:45:08;;;;;;;;;;;;;;;25.24;52.93;99399.53;5075173;28;20009;-77
2023/08/16 02:47:33;;;;;;;;;;;;;;;25.24;52.23;99396.00;5074992;28;19916;-77
2023/08/16 02:49:58;;;;;;;;;;;;;;;25.20;53.04;99397.66;5075652;28;20019;-77
2023/08/16 02:52:23;;;;;;;;;;;;;;;25.22;52.67;99396.28;5077407;28;19904;-78
2023/08/16 02:54:49;;;;;;;;;;;;;;;25.23;52.70;99392.50;5058372;28;19914;-78
2023/08/16 02:57:16;;;;;;;;;;;;;;;25.22;53.58;99401.69;5074746;28;20313;-76
2023/08/16 02:59:42;;;;;;;;;;;;;;;25.21;52.71;99394.66;5074274;28;19927;-78
2023/08/16 03:02:08;;;;;;;;;;;;;;;25.22;52.90;99392.78;5074126;28;19965;-78
2023/08/16 03:04:33;;;;;;;;;;;;;;;25.23;53.34;99403.31;5074134;28;19912;-77
2023/08/16 03:06:58;;;;;;;;;;;;;;;25.26;53.24;99401.94;5073849;28;19959;-78
2023/08/16 03:09:24;;;;;;;;;;;;;;;25.25;52.35;99406.53;5074201;28;19916;-78
2023/08/16 03:11:49;;;;;;;;;;;;;;;25.28;52.64;99406.03;5074101;28;19912;-78
2023/08/16 03:14:15;;;;;;;;;;;;;;;25.30;53.55;99411.16;5074011;28;19913;-78
2023/08/16 03:16:40;;;;;;;;;;;;;;;25.26;52.82;99423.56;5073726;28;19912;-78
2023/08/16 03:19:06;;;;;;;;;;;;;;;25.25;52.98;99409.25;5073807;28;19923;-78
2023/08/16 03:21:33;;;;;;;;;;;;;;;25.23;52.94;99416.81;5073874;28;19966;-78
2023/08/16 03:23:58;;;;;;;;;;;;;;;25.27;52.63;99411.69;5073957;28;19912;-77
2023/08/16 03:26:24;;;;;;;;;;;;;;;25.26;53.25;99415.47;5073754;28;19919;-78
2023/08/16 03:28:49;;;;;;;;;;;;;;;25.27;53.07;99412.50;5073878;28;19920;-77
2023/08/16 03:31:14;;;;;;;;;;;;;;;25.28;52.79;99411.41;5055658;28;20003;-78
2023/08/16 03:33:39;;;;;;;;;;;;;;;25.28;53.04;99419.53;5073789;28;20354;-78
2023/08/16 03:36:05;;;;;;;;;;;;;;;25.27;53.37;99419.81;5072976;28;19955;-78
2023/08/16 03:38:30;;;;;;;;;;;;;;;25.27;53.85;99414.41;5073648;28;19912;-78
2023/08/16 03:40:55;;;;;;;;;;;;;;;25.27;53.39;99412.50;5073401;28;19917;-78
2023/08/16 03:43:20;;;;;;;;;;;;;;;25.27;53.25;99412.50;5073509;28;20026;-78
2023/08/16 03:45:48;;;;;;;;;;;;;;;25.29;53.00;99412.22;5074053;28;19912;-78
2023/08/16 03:48:13;;;;;;;;;;;;;;;25.34;52.55;99423.81;5055792;28;20407;-79
2023/08/16 03:50:38;;;;;;;;;;;;;;;25.35;53.07;99413.81;5055586;28;19916;-78
2023/08/16 03:53:03;;;;;;;;;;;;;;;25.35;52.62;99413.81;5073482;28;20316;-78
2023/08/16 03:55:28;;;;;;;;;;;;;;;25.34;52.82;99417.63;5055670;28;19912;-78
2023/08/16 03:57:54;;;;;;;;;;;;;;;25.35;52.96;99416.53;5055718;28;19916;-77
2023/08/16 04:00:19;;;;;;;;;;;;;;;25.41;52.95;99420.81;5073102;28;19993;-78
2023/08/16 04:02:44;;;;;;;;;;;;;;;25.42;53.56;99418.94;5055246;28;19920;-78
2023/08/16 04:05:11;;;;;;;;;;;;;;;25.43;53.15;99421.34;5055007;28;19916;-78
2023/08/16 04:07:37;;;;;;;;;;;;;;;25.41;53.55;99428.94;5072742;28;19916;-78
2023/08/16 04:10:02;;;;;;;;;;;;;;;25.38;52.83;99428.69;5073125;28;19912;-77
2023/08/16 04:12:27;;;;;;;;;;;;;;;25.42;53.49;99429.72;5072952;28;19920;-78
2023/08/16 04:14:53;;;;;;;;;;;;;;;25.45;52.93;99435.41;5055119;28;19970;-77
2023/08/16 04:17:18;;;;;;;;;;;;;;;25.47;53.58;99430.50;5055359;28;19960;-76
2023/08/16 04:19:43;;;;;;;;;;;;;;;25.49;52.18;99438.34;5073208;28;19913;-78
2023/08/16 04:22:09;;;;;;;;;;;;;;;25.46;53.25;99434.31;5072930;28;19985;-78
2023/08/16 04:24:34;;;;;;;;;;;;;;;25.46;52.81;99433.50;5073060;28;19923;-78
2023/08/16 04:26:59;;;;;;;;;;;;;;;25.42;53.29;99427.84;5072936;28;20069;-78
2023/08/16 04:29:24;;;;;;;;;;;;;;;25.42;53.96;99448.66;5072998;28;19917;-79
2023/08/16 04:31:50;;;;;;;;;;;;;;;25.43;52.71;99436.75;5072851;28;20365;-78
2023/08/16 04:34:15;;;;;;;;;;;;;;;25.46;52.65;99439.72;5072875;28;20002;-78
2023/08/16 04:36:40;;;;;;;;;;;;;;;25.47;53.26;99445.94;5073144;28;19909;-78
2023/08/16 04:39:05;;;;;;;;;;;;;;;25.46;52.58;99439.72;5054925;28;20008;-78
2023/08/16 04:41:30;;;;;;;;;;;;;;;25.43;52.96;99442.97;5072510;28;20369;-78
2023/08/16 04:43:56;;;;;;;;;;;;;;;25.45;53.25;99453.50;5054755;28;19912;-78
2023/08/16 04:46:21;;;;;;;;;;;;;;;25.47;53.20;99456.75;5054957;28;19920;-78
2023/08/16 04:48:46;;;;;;;;;;;;;;;25.49;53.33;99449.97;5072823;28;20011;-78
2023/08/16 04:51:12;;;;;;;;;;;;;;;25.52;53.09;99448.59;5072490;28;19919;-78
2023/08/16 04:53:37;;;;;;;;;;;;;;;25.51;52.73;99442.38;5072531;28;20385;-78
2023/08/16 04:56:02;;;;;;;;;;;;;;;25.50;53.18;99440.78;5072667;28;19913;-77
2023/08/16 04:58:27;;;;;;;;;;;;;;;25.54;53.71;99438.31;5072565;28;19973;-76
2023/08/16 05:00:53;;;;;;;;;;;;;;;25.57;53.06;99440.47;5072288;28;19921;-77
2023/08/16 05:03:18;;;;;;;;;;;;;;;25.60;54.72;99446.13;5054460;28;20373;-76
2023/08/16 05:05:43;;;;;;;;;;;;;;;25.62;53.13;99437.72;5072480;28;19962;-77
2023/08/16 05:08:08;;;;;;;;;;;;;;;25.67;53.17;99448.56;5072173;28;19916;-78
2023/08/16 05:10:34;;;;;;;;;;;;;;;25.68;53.54;99444.75;5072446;28;20288;-78
2023/08/16 05:12:59;;;;;;;;;;;;;;;25.69;52.47;99449.09;5072372;28;19913;-78
2023/08/16 05:15:24;;;;;;;;;;;;;;;25.71;52.95;99443.41;5071763;28;19913;-77
2023/08/16 05:17:49;;;;;;;;;;;;;;;25.72;53.08;99451.22;5071730;28;20427;-78
2023/08/16 05:20:15;;;;;;;;;;;;;;;25.73;52.87;99450.13;5072005;28;20355;-77
2023/08/16 05:22:40;;;;;;;;;;;;;;;25.78;53.18;99457.41;5072270;28;19914;-77
2023/08/16 05:25:05;;;;;;;;;;;;;;;25.75;53.09;99447.97;5054418;28;19912;-77
2023/08/16 05:27:31;;;;;;;;;;;;;;;25.81;52.98;99454.16;5054385;28;19917;-78
2023/08/16 05:29:56;;;;;;;;;;;;;;;25.86;52.82;99457.63;5053638;28;19955;-78
2023/08/16 05:32:22;;;;;;;;;;;;;;;25.85;52.77;99453.31;5071566;28;19962;-77
2023/08/16 05:34:47;;;;;;;;;;;;;;;25.87;52.82;99459.25;5071585;28;19920;-78
2023/08/16 05:37:12;;;;;;;;;;;;;;;25.89;52.35;99458.97;5071760;28;19913;-78
2023/08/16 05:39:38;;;;;;;;;;;;;;;25.88;52.54;99457.34;5071339;28;20285;-78
2023/08/16 05:42:03;;;;;;;;;;;;;;;25.90;53.10;99455.97;5053380;28;19921;-78
2023/08/16 05:44:28;;;;;;;;;;;;;;;25.93;52.57;99454.59;5069437;28;19912;-77
2023/08/16 05:46:54;;;;;;;;;;;;;;;25.94;51.78;99458.94;5050425;28;19924;-78
2023/08/16 05:49:19;;;;;;;;;;;;;;;25.95;52.54;99457.84;5063166;28;19924;-79
2023/08/16 05:51:44;;;;;;;;;;;;;;;25.99;52.41;99456.19;5073923;28;19920;-77
2023/08/16 05:54:10;;;;;;;;;;;;;;;26.04;52.22;99455.38;5061204;28;20403;-77
2023/08/16 05:56:35;;;;;;;;;;;;;;;26.08;52.86;99456.44;5064370;28;19923;-77
2023/08/16 05:59:01;;;;;;;;;;;;;;;26.12;52.71;99452.88;5056802;28;19923;-77
2023/08/16 06:01:26;;;;;;;;;;;;;;;26.17;52.46;99455.53;5062015;28;19975;-78
2023/08/16 06:03:51;;;;;;;;;;;;;;;26.18;52.13;99467.97;5050128;28;19923;-77
2023/08/16 06:06:16;;;;;;;;;;;;;;;26.21;52.36;99464.72;5052151;28;19917;-77
2023/08/16 06:08:42;;;;;;;;;;;;;;;26.22;52.37;99470.94;5051651;28;20321;-77
2023/08/16 06:11:08;;;;;;;;;;;;;;;26.22;52.53;99465.53;5047011;28;19977;-79
2023/08/16 06:13:34;;;;;;;;;;;;;;;26.24;52.46;99455.22;5065055;28;19963;-77
2023/08/16 06:15:59;;;;;;;;;;;;;;;26.23;52.21;99464.44;5040628;28;19952;-78
2023/08/16 06:18:24;;;;;;;;;;;;;;;26.25;52.00;99483.91;5042949;28;20340;-78
2023/08/16 06:20:50;;;;;;;;;;;;;;;26.28;51.94;99458.97;5065954;28;20196;-78
2023/08/16 06:23:15;;;;;;;;;;;;;;;26.28;52.35;99465.19;5046203;28;20013;-78
2023/08/16 06:25:40;;;;;;;;;;;;;;;26.29;51.81;99463.28;5056278;28;19978;-78
2023/08/16 06:28:05;;;;;;;;;;;;;;;26.31;51.86;99471.13;5055682;28;19925;-77
2023/08/16 06:30:31;;;;;;;;;;;;;;;26.29;51.82;99474.94;5068179;28;20425;-78
2023/08/16 06:32:56;;;;;;;;;;;;;;;26.34;52.29;99460.59;5058285;28;19913;-76
2023/08/16 06:35:21;;;;;;;;;;;;;;;26.39;51.57;99465.94;5037441;28;19913;-77
2023/08/16 06:37:47;;;;;;;;;;;;;;;26.00;51.64;99395.56;5054826;28;19913;-78
2023/08/16 06:40:12;;;;;;;;;;;;;;;26.40;52.31;99475.69;5073576;28;19916;-76
2023/08/16 06:42:39;;;;;;;;;;;;;;;26.44;51.72;99463.19;5074844;28;19912;-78
2023/08/16 06:45:05;;;;;;;;;;;;;;;26.50;51.96;99466.66;5066792;28;19920;-78
2023/08/16 06:47:30;;;;;;;;;;;;;;;26.54;51.55;99471.22;5059501;28;19928;-77
2023/08/16 06:49:55;;;;;;;;;;;;;;;26.59;51.39;99471.19;5056142;28;20372;-78
2023/08/16 06:52:20;;;;;;;;;;;;;;;26.64;51.30;99469.53;5051863;28;19920;-77
2023/08/16 06:54:46;;;;;;;;;;;;;;;26.62;51.15;99469.00;5056325;28;19909;-79
2023/08/16 06:57:11;;;;;;;;;;;;;;;26.64;51.14;99473.03;5070485;28;19923;-77
2023/08/16 06:59:38;;;;;;;;;;;;;;;26.66;50.79;99470.84;5060432;28;19979;-77
2023/08/16 07:02:03;;;;;;;;;;;;;;;26.66;51.17;99470.84;5068619;28;19917;-77
2023/08/16 07:04:28;;;;;;;;;;;;;;;26.71;50.93;99468.09;5039928;28;19912;-77
2023/08/16 07:06:54;;;;;;;;;;;;;;;26.76;51.07;99467.25;5054008;28;19916;-78
2023/08/16 07:09:20;;;;;;;;;;;;;;;26.82;50.83;99464.22;5059705;28;19998;-77
2023/08/16 07:11:45;;;;;;;;;;;;;;;26.85;51.15;99469.06;5054497;28;20023;-77
2023/08/16 07:14:11;;;;;;;;;;;;;;;26.89;50.80;99461.97;5045801;28;19916;-78
2023/08/16 07:16:38;;;;;;;;;;;;;;;26.95;50.73;99464.63;5059906;28;19913;-79
2023/08/16 07:19:04;;;;;;;;;;;;;;;26.93;50.52;99470.34;5072968;28;19920;-78
2023/08/16 07:21:29;;;;;;;;;;;;;;;26.99;50.50;99466.50;5066356;28;19913;-78
2023/08/16 07:23:54;;;;;;;;;;;;;;;27.07;50.53;99462.34;5035772;28;19913;-78
2023/08/16 07:26:20;;;;;;;;;;;;;;;27.09;50.32;99458.25;5035703;28;19917;-78
2023/08/16 07:28:45;;;;;;;;;;;;;;;27.14;50.61;99463.63;5049918;28;19923;-78
2023/08/16 07:31:10;;;;;;;;;;;;;;;27.22;50.11;99464.88;5071715;28;21092;-78
2023/08/16 07:33:35;;;;;;;;;;;;;;;27.25;50.40;99458.88;5043598;28;19923;-76
2023/08/16 07:36:01;;;;;;;;;;;;;;;27.28;49.87;99471.84;5071662;28;20347;-76
2023/08/16 07:38:28;;;;;;;;;;;;;;;27.27;49.94;99469.44;5073552;28;19916;-77
2023/08/16 07:40:54;;;;;;;;;;;;;;;27.28;49.58;99462.91;5073273;28;20375;-77
2023/08/16 07:43:19;;;;;;;;;;;;;;;27.28;50.07;99469.16;5071526;28;19963;-77
2023/08/16 07:45:44;;;;;;;;;;;;;;;27.31;49.60;99473.19;5067593;28;20361;-77
2023/08/16 07:48:10;;;;;;;;;;;;;;;27.29;49.99;99467.25;5035180;28;20456;-78
2023/08/16 07:50:36;;;;;;;;;;;;;;;27.27;49.76;99464.81;5035606;28;19913;-78
2023/08/16 07:53:01;;;;;;;;;;;;;;;27.29;49.97;99475.38;5060222;28;19913;-78
2023/08/16 07:55:31;;;;;;;;;;;;;;;27.31;49.78;99474.00;5053144;28;20532;-78
2023/08/16 07:57:57;;;;;;;;;;;;;;;27.36;49.89;99475.84;5035154;28;19924;-78
2023/08/16 08:00:23;;;;;;;;;;;;;;;27.41;49.69;99471.16;5039029;28;19928;-76
2023/08/16 08:02:48;;;;;;;;;;;;;;;27.43;49.22;99479.81;5058265;28;19967;-77
2023/08/16 08:05:15;;;;;;;;;;;;;;;27.48;50.11;99476.22;5046122;28;19917;-78
2023/08/16 08:07:40;;;;;;;;;;;;;;;27.51;49.41;99476.47;5064321;28;19921;-78
2023/08/16 08:10:06;;;;;;;;;;;;;;;27.62;49.07;99477.19;5047347;28;19928;-76
2023/08/16 08:12:31;;;;;;;;;;;;;;;27.78;48.78;99480.50;5052756;28;20015;-78
2023/08/16 08:14:57;;;;;;;;;;;;;;;27.83;48.75;99483.13;5052806;28;20290;-77
2023/08/16 08:17:23;;;;;;;;;;;;;;;27.85;48.25;99483.66;5065995;28;19917;-77
2023/08/16 08:19:48;;;;;;;;;;;;;;;27.84;48.67;99482.84;5046744;28;19967;-78
2023/08/16 08:22:13;;;;;;;;;;;;;;;27.80;48.24;99479.09;5059710;28;19917;-76
2023/08/16 08:24:38;;;;;;;;;;;;;;;27.84;48.28;99482.84;5072203;28;19913;-77
2023/08/16 08:27:04;;;;;;;;;;;;;;;27.90;48.26;99480.84;5054434;28;20361;-77
2023/08/16 08:29:29;;;;;;;;;;;;;;;28.01;48.25;99465.22;5066060;28;19924;-78
2023/08/16 08:31:54;;;;;;;;;;;;;;;28.05;48.07;99477.91;5065485;28;19923;-77
2023/08/16 08:34:19;;;;;;;;;;;;;;;28.09;48.11;99478.94;5061140;28;19924;-77
2023/08/16 08:36:45;;;;;;;;;;;;;;;28.23;48.06;99470.88;5065488;28;20385;-77
2023/08/16 08:39:10;;;;;;;;;;;;;;;28.31;47.69;99475.66;5071090;28;19954;-77
2023/08/16 08:41:37;;;;;;;;;;;;;;;28.38;47.34;99473.38;5052957;28;19916;-78
2023/08/16 08:44:02;;;;;;;;;;;;;;;28.54;47.15;99473.13;5052147;28;19913;-75
2023/08/16 08:46:28;;;;;;;;;;;;;;;28.58;46.91;99461.34;5052612;28;19935;-79
2023/08/16 08:48:53;;;;;;;;;;;;;;;28.63;46.71;99463.97;5071344;28;19927;-78
2023/08/16 08:51:19;;;;;;;;;;;;;;;28.71;46.84;99471.44;5070969;28;19920;-77
2023/08/16 08:53:44;;;;;;;;;;;;;;;28.78;46.74;99462.91;5063082;28;19917;-76
2023/08/16 08:56:10;;;;;;;;;;;;;;;28.85;46.12;99457.91;5056149;28;19913;-78
2023/08/16 08:58:39;;;;;;;;;;;;;;;28.97;45.57;99463.66;5060577;28;19958;-78
2023/08/16 09:01:06;;;;;;;;;;;;;;;29.07;46.02;99460.75;5059075;28;19952;-78
2023/08/16 09:03:31;;;;;;;;;;;;;;;29.37;45.48;99453.88;5060234;28;20022;-77
2023/08/16 09:05:57;;;;;;;;;;;;;;;29.61;44.63;99456.41;5050043;28;19968;-78
2023/08/16 09:08:23;;;;;;;;;;;;;;;29.67;44.79;99455.19;5070931;28;19928;-77
2023/08/16 09:10:49;;;;;;;;;;;;;;;29.87;44.55;99453.94;5053966;28;19912;-77
2023/08/16 09:13:15;;;;;;;;;;;;;;;30.02;43.96;99452.81;5067891;28;19916;-78
2023/08/16 09:15:40;;;;;;;;;;;;;;;30.18;44.18;99451.31;5060359;28;20310;-78
2023/08/16 09:18:08;;;;;;;;;;;;;;;30.27;43.90;99438.56;5043428;28;20366;-78
2023/08/16 09:20:34;;;;;;;;;;;;;;;30.30;43.75;99443.38;5069477;28;19916;-77
2023/08/16 09:22:59;;;;;;;;;;;;;;;30.23;43.74;99436.78;5049795;28;20294;-76
2023/08/16 09:25:24;;;;;;;;;;;;;;;30.22;44.25;99435.97;5050794;28;19920;-78
2023/08/16 09:27:50;;;;;;;;;;;;;;;30.18;44.23;99426.81;5070767;28;19920;-77
2023/08/16 09:30:16;;;;;;;;;;;;;;;30.10;44.55;99424.84;5061757;28;19917;-77
2023/08/16 09:32:41;;;;;;;;;;;;;;;30.00;44.33;99428.56;5062152;28;20282;-77
2023/08/16 09:35:12;;;;;;;;;;;;;;;29.83;44.38;99425.72;5050743;28;19971;-78
2023/08/16 09:37:38;;;;;;;;;;;;;;;29.82;44.98;99426.03;5052373;28;20064;-77
2023/08/16 09:40:04;;;;;;;;;;;;;;;29.77;45.23;99423.44;5051557;28;20458;-78
2023/08/16 09:42:32;;;;;;;;;;;;;;;29.79;44.98;99426.66;5056861;28;19916;-78
2023/08/16 09:44:58;;;;;;;;;;;;;;;29.96;44.82;99430.31;5052975;28;19913;-76
2023/08/16 09:47:23;;;;;;;;;;;;;;;30.01;44.38;99413.88;5062362;28;19924;-78
2023/08/16 09:49:49;;;;;;;;;;;;;;;29.99;44.66;99421.53;5056222;28;20282;-79
2023/08/16 09:52:15;;;;;;;;;;;;;;;29.96;45.30;99426.78;5060322;28;19928;-78
2023/08/16 09:54:40;;;;;;;;;;;;;;;30.09;44.99;99419.69;5059389;28;19928;-78
2023/08/16 09:57:06;;;;;;;;;;;;;;;30.15;44.86;99416.53;5061824;28;19917;-78
2023/08/16 09:59:31;;;;;;;;;;;;;;;30.38;44.86;99411.88;5060368;28;19928;-78
2023/08/16 10:01:59;;;;;;;;;;;;;;;30.71;43.83;99417.88;5062893;28;19916;-76
2023/08/16 10:04:27;;;;;;;;;;;;;;;30.83;42.76;99412.63;5068469;28;19916;-78
2023/08/16 10:06:52;;;;;;;;;;;;;;;30.76;43.25;99422.38;5068594;28;20361;-77
2023/08/16 10:09:17;;;;;;;;;;;;;;;30.62;43.46;99417.03;5045072;28;19924;-79
2023/08/16 10:11:43;;;;;;;;;;;;;;;30.54;43.95;99415.84;5067836;28;19923;-77
2023/08/16 10:14:08;;;;;;;;;;;;;;;30.63;43.84;99407.72;5066176;28;19935;-77
2023/08/16 10:16:38;;;;;;;;;;;;;;;30.89;43.68;99413.28;5066226;28;19931;-78
2023/08/16 10:19:04;;;;;;;;;;;;;;;30.85;43.79;99413.09;5046636;28;19960;-77
2023/08/16 10:21:30;;;;;;;;;;;;;;;30.74;44.04;99411.78;5060476;28;20421;-79
2023/08/16 10:23:56;;;;;;;;;;;;;;;30.62;44.24;99406.13;5063680;28;20356;-78
2023/08/16 10:26:23;;;;;;;;;;;;;;;30.57;44.14;99408.94;5058677;28;19935;-78
2023/08/16 10:28:52;;;;;;;;;;;;;;;30.61;44.17;99397.13;5057220;28;19924;-78
2023/08/16 10:31:20;;;;;;;;;;;;;;;31.14;43.65;99401.63;5040315;28;19912;-78
2023/08/16 10:33:47;;;;;;;;;;;;;;;31.59;42.54;99406.91;5046170;28;20277;-78
2023/08/16 10:36:13;;;;;;;;;;;;;;;31.52;42.74;99398.38;5063242;28;19920;-79
2023/08/16 10:38:42;;;;;;;;;;;;;;;31.40;42.78;99392.75;5059401;28;19916;-77
2023/08/16 10:41:14;;;;;;;;;;;;;;;31.19;43.33;99387.09;5064488;28;19928;-78
2023/08/16 10:43:47;;;;;;;;;;;;;;;31.05;43.63;99391.84;5066790;28;19916;-76
2023/08/16 10:46:12;;;;;;;;;;;;;;;31.49;43.21;99388.09;5062024;28;19967;-77
2023/08/16 10:48:38;;;;;;;;;;;;;;;31.68;42.56;99385.06;5070696;28;20393;-78
2023/08/16 10:51:04;;;;;;;;;;;;;;;31.65;42.93;99382.97;5060182;28;20405;-78
2023/08/16 10:53:30;;;;;;;;;;;;;;;31.76;42.49;99367.91;5068352;28;20454;-78
2023/08/16 10:55:56;;;;;;;;;;;;;;;32.13;42.07;99367.22;5046942;28;19920;-78
2023/08/16 10:58:25;;;;;;;;;;;;;;;32.64;40.21;99364.66;5059646;28;20425;-78
2023/08/16 11:00:56;;;;;;;;;;;;;;;33.02;39.91;99354.53;5054414;28;20476;-78
2023/08/16 11:03:21;;;;;;;;;;;;;;;32.98;39.77;99353.59;5049636;28;19916;-76
2023/08/16 11:05:46;;;;;;;;;;;;;;;32.71;40.89;99356.78;5045490;28;20384;-79
2023/08/16 11:08:12;;;;;;;;;;;;;;;32.59;40.66;99353.91;5065038;28;19924;-78
2023/08/16 11:10:37;;;;;;;;;;;;;;;32.96;39.97;99357.81;5052128;28;19916;-78
2023/08/16 11:13:03;;;;;;;;;;;;;;;32.86;39.37;99350.78;5062380;28;19952;-79
2023/08/16 11:15:28;;;;;;;;;;;;;;;32.53;40.21;99353.31;5056941;28;19928;-78
2023/08/16 11:17:55;;;;;;;;;;;;;;;32.35;41.32;99352.56;5069617;28;19917;-77
2023/08/16 11:20:21;;;;;;;;;;;;;;;32.38;40.54;99345.66;5055912;28;19912;-76
2023/08/16 11:22:46;;;;;;;;;;;;;;;32.85;39.21;99343.72;5072231;28;20074;-77
2023/08/16 11:25:12;;;;;;;;;;;;;;;33.34;39.16;99339.38;5055110;28;19952;-78
2023/08/16 11:27:38;;;;;;;;;;;;;;;33.65;39.23;99338.19;5060834;28;19928;-78
2023/08/16 11:30:03;;;;;;;;;;;;;;;33.70;38.51;99332.50;5036529;28;19930;-78
2023/08/16 11:32:38;;;;;;;;;;;;;;;33.45;39.50;99328.84;5036335;28;20012;-78
2023/08/16 11:35:11;;;;;;;;;;;;;;;33.62;38.86;99334.19;5057619;28;19956;-77
2023/08/16 11:37:40;;;;;;;;;;;;;;;33.96;37.01;99337.75;5054242;28;20378;-78
2023/08/16 11:40:07;;;;;;;;;;;;;;;34.30;37.56;99325.63;5051319;28;19944;-77
2023/08/16 11:42:33;;;;;;;;;;;;;;;34.71;36.36;99322.69;5069708;28;19952;-78
2023/08/16 11:44:58;;;;;;;;;;;;;;;34.71;36.78;99327.38;5054528;28;19963;-78
2023/08/16 11:47:23;;;;;;;;;;;;;;;34.31;37.09;99316.25;5054509;28;20373;-78
2023/08/16 11:49:49;;;;;;;;;;;;;;;34.15;38.04;99315.28;5071620;28;19920;-77
2023/08/16 11:52:24;;;;;;;;;;;;;;;34.23;37.07;99308.94;5071581;28;19962;-78
2023/08/16 11:55:06;;;;;;;;;;;;;;;34.35;37.69;99307.03;5054959;28;19943;-77
2023/08/16 11:57:44;;;;;;;;;;;;;;;34.69;36.54;99310.47;5054123;28;19944;-77
2023/08/16 12:00:10;;;;;;;;;;;;;;;34.65;37.15;99312.28;5060695;28;19924;-76
2023/08/16 12:02:36;;;;;;;;;;;;;;;34.26;38.21;99311.81;5058376;28;20457;-77
2023/08/16 12:05:08;;;;;;;;;;;;;;;34.10;38.13;99313.56;5073039;28;19912;-77
2023/08/16 12:07:40;;;;;;;;;;;;;;;34.20;37.84;99301.41;5069847;28;19921;-77
2023/08/16 12:10:06;;;;;;;;;;;;;;;34.36;37.60;99297.69;5070172;28;19917;-78
2023/08/16 12:12:33;;;;;;;;;;;;;;;34.71;37.46;99292.53;5051987;28;20493;-76
2023/08/16 12:14:59;;;;;;;;;;;;;;;34.80;37.09;99278.69;5034665;28;20282;-77
2023/08/16 12:17:24;;;;;;;;;;;;;;;34.62;37.75;99278.13;5058766;28;19917;-77
2023/08/16 12:19:50;;;;;;;;;;;;;;;34.44;37.65;99275.97;5070029;28;19952;-76
2023/08/16 12:22:15;;;;;;;;;;;;;;;34.34;37.56;99269.00;5068419;28;19920;-77
2023/08/16 12:24:40;;;;;;;;;;;;;;;34.32;37.89;99271.25;5073267;28;20449;-77
2023/08/16 12:27:05;;;;;;;;;;;;;;;34.29;37.98;99270.00;5036621;28;19986;-78
2023/08/16 12:29:31;;;;;;;;;;;;;;;34.41;37.87;99261.81;5034251;28;20004;-78
2023/08/16 12:31:56;;;;;;;;;;;;;;;34.38;37.76;99269.91;5039042;28;20003;-77
2023/08/16 12:34:21;;;;;;;;;;;;;;;34.14;38.06;99254.22;5064448;28;19923;-78
2023/08/16 12:36:47;;;;;;;;;;;;;;;33.94;38.68;99250.41;5071170;28;20309;-78
2023/08/16 12:39:12;;;;;;;;;;;;;;;33.96;38.44;99252.81;5062011;28;20378;-78
2023/08/16 12:41:37;;;;;;;;;;;;;;;33.91;37.94;99248.38;5034478;28;19917;-78